Time;durP1;ratioP1;P1;durP2;ratioP2;P2;SDS_P1;SDS_P2;PMS_P1;PMS_P2;Temp;Humidity;BMP_temperature;BMP_pressure;BME280_temperature;BME280_humidity;BME280_pressure;Samples;Min_cycle;Max_cycle;Signal;HPM_P1;HPM_P2
2022/05/13 00:00:28;;;;;;;8.17;5.20;;;;;;;;;;4974323;28;20213;-83
2022/05/13 00:03:33;;;;;;;11.03;5.40;;;;;;;;;;4985202;28;20182;-83
2022/05/13 00:06:37;;;;;;;6.70;5.07;;;;;;;;;;4984877;28;20708;-83
2022/05/13 00:09:56;;;;;;;7.07;5.50;;;;;;;;;;4973987;28;20182;-83
2022/05/13 00:13:00;;;;;;;7.90;5.63;;;;;;;;;;5007468;28;20194;-83
2022/05/13 00:16:06;;;;;;;9.50;6.30;;;;;;;;;;4996297;28;20218;-83
2022/05/13 00:19:11;;;;;;;5.93;5.33;;;;;;;;;;4996661;28;20179;-83
2022/05/13 00:22:16;;;;;;;9.03;5.70;;;;;;;;;;4973500;28;20230;-83
2022/05/13 00:25:25;;;;;;;7.80;5.50;;;;;;;;;;4973619;28;20218;-83
2022/05/13 00:28:29;;;;;;;6.63;5.90;;;;;;;;;;4973791;28;20198;-83
2022/05/13 00:31:33;;;;;;;7.60;5.53;;;;;;;;;;4996565;28;20187;-83
2022/05/13 00:34:37;;;;;;;9.23;5.80;;;;;;;;;;4973778;28;20214;-83
2022/05/13 00:37:41;;;;;;;7.47;5.67;;;;;;;;;;4984806;28;20185;-83
2022/05/13 00:40:46;;;;;;;7.53;6.30;;;;;;;;;;4996407;28;20542;-83
2022/05/13 00:43:52;;;;;;;9.13;6.03;;;;;;;;;;4984979;28;20178;-83
2022/05/13 00:46:56;;;;;;;6.63;5.90;;;;;;;;;;4996175;28;20182;-83
2022/05/13 00:50:02;;;;;;;9.10;6.60;;;;;;;;;;4996066;28;20178;-83
2022/05/13 00:53:06;;;;;;;7.80;6.63;;;;;;;;;;4973562;28;20178;-83
2022/05/13 00:56:10;;;;;;;11.50;6.57;;;;;;;;;;4973436;28;20217;-83
2022/05/13 00:59:18;;;;;;;8.97;6.27;;;;;;;;;;4984568;28;20182;-83
2022/05/13 01:02:22;;;;;;;7.37;6.27;;;;;;;;;;4973314;28;20222;-83
2022/05/13 01:05:28;;;;;;;8.80;6.70;;;;;;;;;;4995235;28;20226;-83
2022/05/13 01:08:34;;;;;;;8.67;6.63;;;;;;;;;;4984588;28;20204;-83
2022/05/13 01:11:40;;;;;;;9.27;6.57;;;;;;;;;;4994483;28;20178;-83
2022/05/13 01:14:51;;;;;;;7.57;6.23;;;;;;;;;;4995031;28;20218;-83
2022/05/13 01:18:08;;;;;;;7.10;6.00;;;;;;;;;;4972702;28;20194;-83
2022/05/13 01:21:21;;;;;;;7.47;6.27;;;;;;;;;;4972580;28;20222;-83
2022/05/13 01:24:25;;;;;;;7.00;6.10;;;;;;;;;;4972725;28;20637;-83
2022/05/13 01:27:29;;;;;;;7.87;6.50;;;;;;;;;;4972893;28;20182;-83
2022/05/13 01:30:33;;;;;;;8.13;6.53;;;;;;;;;;4983874;28;20636;-83
2022/05/13 01:33:39;;;;;;;9.47;6.20;;;;;;;;;;5005877;28;20194;-83
2022/05/13 01:36:43;;;;;;;8.97;6.00;;;;;;;;;;4995113;28;20179;-83
2022/05/13 01:39:47;;;;;;;7.77;5.87;;;;;;;;;;5005788;28;20182;-84
2022/05/13 01:42:51;;;;;;;9.17;6.33;;;;;;;;;;4972829;28;20179;-83
2022/05/13 01:45:56;;;;;;;7.20;6.17;;;;;;;;;;4983724;28;20688;-83
2022/05/13 01:49:01;;;;;;;8.07;6.50;;;;;;;;;;4972276;28;20178;-83
2022/05/13 01:52:05;;;;;;;8.83;6.87;;;;;;;;;;4983759;28;20186;-83
2022/05/13 01:55:09;;;;;;;7.47;6.63;;;;;;;;;;4983292;28;20681;-83
2022/05/13 01:58:17;;;;;;;7.17;6.27;;;;;;;;;;4972355;28;20190;-83
2022/05/13 02:01:21;;;;;;;9.53;6.60;;;;;;;;;;5005717;28;20218;-83
2022/05/13 02:04:25;;;;;;;9.20;7.30;;;;;;;;;;4972307;28;20633;-83
2022/05/13 02:07:29;;;;;;;7.67;6.87;;;;;;;;;;5005358;28;20194;-83
2022/05/13 02:10:34;;;;;;;10.83;6.90;;;;;;;;;;4972183;28;20182;-83
2022/05/13 02:13:39;;;;;;;8.00;7.27;;;;;;;;;;4983114;28;20634;-82
2022/05/13 02:16:43;;;;;;;9.87;7.60;;;;;;;;;;4983320;28;20186;-84
2022/05/13 02:19:47;;;;;;;7.67;6.87;;;;;;;;;;4983096;28;20514;-83
2022/05/13 02:22:52;;;;;;;8.40;6.77;;;;;;;;;;4982368;28;20206;-83
2022/05/13 02:26:05;;;;;;;8.60;7.37;;;;;;;;;;4982764;28;20222;-83
2022/05/13 02:29:09;;;;;;;11.90;7.10;;;;;;;;;;4982950;28;20201;-83
2022/05/13 02:32:13;;;;;;;8.20;7.30;;;;;;;;;;4983056;28;20186;-83
2022/05/13 02:35:18;;;;;;;8.53;7.10;;;;;;;;;;4982558;28;20217;-84
2022/05/13 02:38:22;;;;;;;9.20;6.90;;;;;;;;;;4983083;28;20186;-83
2022/05/13 02:41:26;;;;;;;8.70;7.03;;;;;;;;;;4982885;28;20213;-83
2022/05/13 02:44:31;;;;;;;8.57;7.30;;;;;;;;;;4995020;28;20511;-83
2022/05/13 02:47:36;;;;;;;8.03;7.23;;;;;;;;;;4993723;28;20633;-83
2022/05/13 02:50:41;;;;;;;9.70;7.80;;;;;;;;;;5005126;28;20179;-83
2022/05/13 02:53:45;;;;;;;9.47;7.33;;;;;;;;;;4972031;28;20178;-83
2022/05/13 02:56:49;;;;;;;7.80;7.10;;;;;;;;;;4982804;28;20182;-83
2022/05/13 02:59:53;;;;;;;12.20;8.00;;;;;;;;;;4971778;28;20182;-83
2022/05/13 03:02:58;;;;;;;9.63;8.27;;;;;;;;;;4982363;28;20214;-83
2022/05/13 03:06:02;;;;;;;10.50;7.27;;;;;;;;;;4971088;28;20233;-83
2022/05/13 03:09:06;;;;;;;8.83;7.60;;;;;;;;;;4982667;28;20182;-84
2022/05/13 03:12:11;;;;;;;9.00;8.10;;;;;;;;;;4995189;28;20178;-83
2022/05/13 03:15:15;;;;;;;9.33;7.50;;;;;;;;;;4972047;28;20218;-83
2022/05/13 03:18:20;;;;;;;8.60;7.47;;;;;;;;;;4983138;28;20178;-83
2022/05/13 03:21:26;;;;;;;9.23;8.10;;;;;;;;;;4984071;28;20218;-83
2022/05/13 03:24:30;;;;;;;10.60;8.10;;;;;;;;;;4971486;28;20186;-84
2022/05/13 03:27:34;;;;;;;10.03;7.47;;;;;;;;;;4995115;28;20174;-83
2022/05/13 03:30:38;;;;;;;9.10;7.33;;;;;;;;;;4972291;28;20182;-84
2022/05/13 03:33:42;;;;;;;11.50;7.97;;;;;;;;;;4982781;28;20174;-84
2022/05/13 03:36:49;;;;;;;10.90;7.93;;;;;;;;;;4986607;28;20182;-83
2022/05/13 03:39:54;;;;;;;9.53;8.57;;;;;;;;;;4974175;28;20186;-83
2022/05/13 03:42:58;;;;;;;9.70;8.50;;;;;;;;;;4975846;28;20696;-85
2022/05/13 03:46:02;;;;;;;11.97;8.07;;;;;;;;;;4994699;28;20704;-84
2022/05/13 03:49:06;;;;;;;10.80;8.70;;;;;;;;;;4975488;28;20181;-84
2022/05/13 03:52:11;;;;;;;10.13;9.03;;;;;;;;;;4974783;28;20179;-83
2022/05/13 03:55:15;;;;;;;10.53;8.50;;;;;;;;;;4985483;28;20221;-83
2022/05/13 03:58:20;;;;;;;10.10;9.10;;;;;;;;;;4975153;28;20178;-83
2022/05/13 04:01:23;;;;;;;10.07;9.07;;;;;;;;;;4974740;28;20205;-83
2022/05/13 04:08:55;;;;;;;11.03;9.30;;;;;;;;;;4985442;28;20653;-83
2022/05/13 04:11:14;;;;;;;12.13;9.50;;;;;;;;;;4998327;28;20209;-83
2022/05/13 04:17:41;;;;;;;10.07;9.07;;;;;;;;;;4997411;28;20182;-83
2022/05/13 04:20:47;;;;;;;13.60;10.37;;;;;;;;;;4974776;28;20183;-84
2022/05/13 04:23:54;;;;;;;13.10;9.90;;;;;;;;;;4985500;28;20182;-83
2022/05/13 04:26:58;;;;;;;25.00;12.20;;;;;;;;;;4985440;28;20178;-83
2022/05/13 04:30:02;;;;;;;18.97;11.00;;;;;;;;;;4997545;28;20672;-83
2022/05/13 04:33:06;;;;;;;14.90;10.67;;;;;;;;;;4975453;28;20205;-84
2022/05/13 04:36:11;;;;;;;13.80;9.67;;;;;;;;;;4985205;28;20225;-83
2022/05/13 04:39:15;;;;;;;14.40;10.80;;;;;;;;;;4996513;28;20186;-83
2022/05/13 04:45:44;;;;;;;13.73;8.93;;;;;;;;;;4995362;28;20226;-84
2022/05/13 04:48:49;;;;;;;12.23;8.57;;;;;;;;;;4996158;28;20197;-84
2022/05/13 04:51:54;;;;;;;9.80;8.10;;;;;;;;;;4974289;28;20535;-83
2022/05/13 04:54:58;;;;;;;10.57;7.83;;;;;;;;;;4974968;28;20566;-84
2022/05/13 04:58:04;;;;;;;10.23;8.07;;;;;;;;;;4996504;28;20178;-83
2022/05/13 05:01:10;;;;;;;8.60;7.70;;;;;;;;;;4985053;28;20182;-84
2022/05/13 05:04:14;;;;;;;7.33;6.63;;;;;;;;;;4995599;28;20186;-84
2022/05/13 05:07:18;;;;;;;9.83;6.77;;;;;;;;;;4984681;28;20174;-84
2022/05/13 05:10:22;;;;;;;7.70;6.60;;;;;;;;;;4973620;28;20182;-84
2022/05/13 05:13:29;;;;;;;8.30;7.17;;;;;;;;;;4973800;28;20178;-84
2022/05/13 05:16:33;;;;;;;7.83;7.00;;;;;;;;;;4995645;28;20218;-84
2022/05/13 05:19:38;;;;;;;7.50;6.17;;;;;;;;;;4995528;28;20178;-84
2022/05/13 05:22:46;;;;;;;8.37;6.97;;;;;;;;;;4973397;28;20206;-84
2022/05/13 05:25:50;;;;;;;9.33;6.50;;;;;;;;;;4996435;28;20214;-84
2022/05/13 05:28:54;;;;;;;10.77;6.50;;;;;;;;;;4995552;28;20190;-84
2022/05/13 05:31:58;;;;;;;9.27;6.07;;;;;;;;;;4995447;28;20182;-84
2022/05/13 05:35:03;;;;;;;9.83;5.70;;;;;;;;;;4984014;28;20688;-84
2022/05/13 05:38:07;;;;;;;7.57;6.03;;;;;;;;;;4972956;28;20178;-84
2022/05/13 05:41:11;;;;;;;6.20;5.50;;;;;;;;;;4973195;28;20178;-84
2022/05/13 05:44:15;;;;;;;7.70;5.93;;;;;;;;;;4983705;28;20661;-83
2022/05/13 05:47:23;;;;;;;8.87;6.03;;;;;;;;;;4972786;28;20182;-84
2022/05/13 05:50:28;;;;;;;10.23;5.80;;;;;;;;;;4983683;28;20202;-84
2022/05/13 06:00:17;;;;;;;5.50;4.80;;;;;;;;;;4995048;28;20183;-84
2022/05/13 06:03:21;;;;;;;7.60;4.93;;;;;;;;;;4994721;28;20214;-84
2022/05/13 06:06:25;;;;;;;6.43;5.83;;;;;;;;;;4983175;28;20708;-84
2022/05/13 06:09:30;;;;;;;7.37;5.43;;;;;;;;;;4994999;28;20178;-84
2022/05/13 06:12:34;;;;;;;7.87;5.33;;;;;;;;;;4983526;28;20197;-84
2022/05/13 06:15:38;;;;;;;5.87;5.07;;;;;;;;;;4972336;28;20218;-84
2022/05/13 06:18:43;;;;;;;5.87;5.27;;;;;;;;;;4995709;28;20511;-84
2022/05/13 06:21:47;;;;;;;5.80;4.80;;;;;;;;;;4972244;28;20190;-84
2022/05/13 06:24:51;;;;;;;5.53;5.03;;;;;;;;;;4983086;28;20209;-84
2022/05/13 06:27:59;;;;;;;5.80;4.57;;;;;;;;;;4972528;28;20530;-84
2022/05/13 06:31:04;;;;;;;6.13;4.90;;;;;;;;;;4972724;28;20178;-84
2022/05/13 06:34:09;;;;;;;6.43;5.00;;;;;;;;;;4982950;28;20182;-84
2022/05/13 06:37:13;;;;;;;5.83;4.40;;;;;;;;;;4983652;28;20186;-83
2022/05/13 06:40:18;;;;;;;6.77;5.00;;;;;;;;;;4983001;28;20186;-83
2022/05/13 06:43:23;;;;;;;5.67;4.43;;;;;;;;;;4982926;28;20210;-84
2022/05/13 06:46:27;;;;;;;7.40;4.30;;;;;;;;;;4983179;28;20214;-84
2022/05/13 06:49:31;;;;;;;5.53;4.57;;;;;;;;;;4971880;28;20186;-84
2022/05/13 06:52:36;;;;;;;4.20;3.80;;;;;;;;;;4972446;28;20174;-84
2022/05/13 06:55:40;;;;;;;6.20;4.33;;;;;;;;;;4994388;28;20214;-84
2022/05/13 06:58:44;;;;;;;4.70;4.03;;;;;;;;;;4972081;28;20197;-84
2022/05/13 07:01:49;;;;;;;8.43;5.23;;;;;;;;;;4994463;28;20182;-84
2022/05/13 07:04:54;;;;;;;4.33;3.93;;;;;;;;;;4982594;28;20226;-85
2022/05/13 07:07:57;;;;;;;5.83;3.90;;;;;;;;;;4972153;28;20178;-84
2022/05/13 07:11:01;;;;;;;4.30;3.90;;;;;;;;;;4997418;28;20178;-84
2022/05/13 07:14:06;;;;;;;5.53;3.70;;;;;;;;;;4976051;28;20186;-84
2022/05/13 07:17:10;;;;;;;10.70;4.40;;;;;;;;;;4998174;28;20189;-84
2022/05/13 07:20:15;;;;;;;7.00;3.93;;;;;;;;;;4987311;28;20645;-84
2022/05/13 07:23:20;;;;;;;4.27;3.40;;;;;;;;;;4997732;28;20214;-84
2022/05/13 07:26:23;;;;;;;4.73;3.30;;;;;;;;;;4998258;28;20218;-84
2022/05/13 07:29:28;;;;;;;5.27;3.20;;;;;;;;;;4975451;28;20197;-84
2022/05/13 07:32:33;;;;;;;4.70;3.53;;;;;;;;;;4997446;28;20197;-84
2022/05/13 07:35:37;;;;;;;5.37;3.93;;;;;;;;;;4997331;28;20684;-84
2022/05/13 07:41:16;;;;;;;4.93;4.37;;;;;;;;;;4975734;28;20178;-84
2022/05/13 07:42:08;;;;;;;4.10;3.77;;;;;;;;;;4986170;28;20206;-84
2022/05/13 07:45:12;;;;;;;5.03;3.90;;;;;;;;;;4986205;28;20218;-84
2022/05/13 07:48:16;;;;;;;4.40;3.50;;;;;;;;;;4997302;28;20185;-84
2022/05/13 07:51:23;;;;;;;6.10;3.87;;;;;;;;;;5003274;28;20178;-86
2022/05/13 07:54:27;;;;;;;4.80;4.20;;;;;;;;;;4982722;28;20179;-84
2022/05/13 07:57:31;;;;;;;6.80;4.07;;;;;;;;;;5004236;28;20206;-84
2022/05/13 08:00:37;;;;;;;4.83;4.20;;;;;;;;;;4982944;28;20542;-84
2022/05/13 08:03:43;;;;;;;4.80;4.30;;;;;;;;;;4982054;28;20210;-85
2022/05/13 08:06:47;;;;;;;4.73;4.17;;;;;;;;;;5005004;28;20183;-84
2022/05/13 08:09:51;;;;;;;6.83;4.47;;;;;;;;;;4981200;28;20178;-85
2022/05/13 08:12:55;;;;;;;7.80;4.57;;;;;;;;;;4981618;28;20201;-84
2022/05/13 08:16:11;;;;;;;5.03;4.47;;;;;;;;;;5002110;28;20222;-85
2022/05/13 08:19:15;;;;;;;7.03;4.27;;;;;;;;;;4981280;28;20182;-85
2022/05/13 08:22:19;;;;;;;4.77;4.33;;;;;;;;;;4981546;28;20618;-85
2022/05/13 08:25:25;;;;;;;5.27;4.33;;;;;;;;;;4981456;28;20256;-84
2022/05/13 08:28:29;;;;;;;4.93;4.27;;;;;;;;;;4992204;28;20182;-85
2022/05/13 08:31:33;;;;;;;7.10;4.17;;;;;;;;;;4981286;28;20182;-85
2022/05/13 08:34:37;;;;;;;6.00;4.33;;;;;;;;;;4982076;28;20214;-85
2022/05/13 08:37:44;;;;;;;9.40;5.30;;;;;;;;;;4981330;28;20661;-85
2022/05/13 08:40:55;;;;;;;9.33;5.00;;;;;;;;;;5002423;28;20182;-85
2022/05/13 08:44:07;;;;;;;8.17;5.33;;;;;;;;;;4991503;28;20214;-84
2022/05/13 08:47:40;;;;;;;5.97;4.50;;;;;;;;;;5001690;28;20183;-84
2022/05/13 08:51:03;;;;;;;5.93;4.50;;;;;;;;;;5001741;28;20186;-85
2022/05/13 08:54:16;;;;;;;4.50;4.00;;;;;;;;;;5002374;28;20174;-84
2022/05/13 08:57:24;;;;;;;4.80;4.13;;;;;;;;;;4979716;28;20190;-84
2022/05/13 09:00:38;;;;;;;5.43;4.57;;;;;;;;;;4990724;28;20186;-84
2022/05/13 09:03:59;;;;;;;5.03;4.17;;;;;;;;;;4979068;28;20210;-85
2022/05/13 09:07:13;;;;;;;4.93;4.37;;;;;;;;;;4991143;28;20178;-85
2022/05/13 09:10:18;;;;;;;9.03;4.53;;;;;;;;;;4991221;28;20182;-85
2022/05/13 09:13:40;;;;;;;6.70;5.10;;;;;;;;;;4991145;28;20174;-84
2022/05/13 09:16:49;;;;;;;5.67;5.17;;;;;;;;;;5002916;28;20186;-85
2022/05/13 09:20:08;;;;;;;10.17;5.40;;;;;;;;;;5001846;28;20178;-84
2022/05/13 09:23:13;;;;;;;6.53;4.73;;;;;;;;;;5001583;28;20214;-86
2022/05/13 09:26:20;;;;;;;7.40;3.63;;;;;;;;;;5001882;28;20210;-84
2022/05/13 09:29:26;;;;;;;7.07;4.10;;;;;;;;;;4979338;28;20178;-85
2022/05/13 09:32:30;;;;;;;6.03;3.80;;;;;;;;;;4978879;28;20518;-84
2022/05/13 09:35:39;;;;;;;5.53;3.83;;;;;;;;;;4978846;28;20209;-84
2022/05/13 09:38:46;;;;;;;6.43;4.50;;;;;;;;;;5001727;28;20519;-84
2022/05/13 09:41:52;;;;;;;4.63;4.20;;;;;;;;;;5002766;28;20182;-84
2022/05/13 09:45:15;;;;;;;5.93;3.80;;;;;;;;;;4979220;28;20233;-84
2022/05/13 09:48:19;;;;;;;6.43;4.43;;;;;;;;;;4990503;28;20186;-85
2022/05/13 09:51:35;;;;;;;8.07;4.60;;;;;;;;;;5001773;28;20190;-85
2022/05/13 09:54:41;;;;;;;7.77;4.67;;;;;;;;;;5000679;28;20218;-86
2022/05/13 09:57:49;;;;;;;6.77;4.47;;;;;;;;;;5002592;28;20240;-84
2022/05/13 10:00:57;;;;;;;10.17;4.60;;;;;;;;;;4980506;28;20198;-85
2022/05/13 10:04:10;;;;;;;6.77;4.53;;;;;;;;;;4980150;28;20206;-86
2022/05/13 10:07:16;;;;;;;5.10;4.50;;;;;;;;;;5030848;23;20228;-82
2022/05/13 10:14:00;;;;;;;5.27;4.77;;;;;;;;;;5038094;28;20177;-82
2022/05/13 10:17:12;;;;;;;8.13;4.30;;;;;;;;;;5007042;28;20217;-83
2022/05/13 10:20:26;;;;;;;8.27;5.23;;;;;;;;;;5017703;28;20177;-83
2022/05/13 10:23:43;;;;;;;9.03;5.63;;;;;;;;;;5028524;28;20214;-85
2022/05/13 10:26:48;;;;;;;10.57;9.47;;;;;;;;;;5018776;28;20225;-85
2022/05/13 10:29:58;;;;;;;6.40;5.80;;;;;;;;;;5006537;28;20522;-85
2022/05/13 10:33:08;;;;;;;6.47;5.00;;;;;;;;;;5018330;28;20177;-85
2022/05/13 10:36:15;;;;;;;10.57;9.47;;;;;;;;;;5007956;28;20212;-85
2022/05/13 10:39:24;;;;;;;9.13;8.23;;;;;;;;;;5007411;28;20185;-85
2022/05/13 10:42:39;;;;;;;8.40;7.50;;;;;;;;;;5006687;28;20181;-83
2022/05/13 10:45:44;;;;;;;7.20;4.93;;;;;;;;;;5009645;28;20545;-83
2022/05/13 10:48:51;;;;;;;5.40;4.90;;;;;;;;;;5022302;28;20185;-85
2022/05/13 10:52:11;;;;;;;7.77;5.30;;;;;;;;;;4999215;28;20186;-85
2022/05/13 10:55:39;;;;;;;5.63;4.90;;;;;;;;;;5022738;28;20178;-84
2022/05/13 10:59:15;;;;;;;5.87;4.53;;;;;;;;;;5010161;28;20186;-85
2022/05/13 11:02:41;;;;;;;8.23;4.77;;;;;;;;;;5022591;28;20205;-85
2022/05/13 11:05:52;;;;;;;7.33;4.90;;;;;;;;;;5022745;28;20557;-85
2022/05/13 11:09:06;;;;;;;6.00;3.97;;;;;;;;;;5022208;28;20526;-85
2022/05/13 11:12:38;;;;;;;7.43;4.27;;;;;;;;;;5021834;28;20182;-85
2022/05/13 11:16:07;;;;;;;5.30;3.80;;;;;;;;;;5021384;28;20557;-85
2022/05/13 11:19:24;;;;;;;8.73;4.40;;;;;;;;;;5009971;28;20177;-85
2022/05/13 11:22:36;;;;;;;11.67;4.90;;;;;;;;;;5021374;28;20525;-85
2022/05/13 11:26:05;;;;;;;6.27;4.20;;;;;;;;;;5008977;28;20213;-85
2022/05/13 11:29:23;;;;;;;7.93;4.00;;;;;;;;;;5031900;28;20186;-84
2022/05/13 11:32:42;;;;;;;8.43;4.03;;;;;;;;;;5021677;28;20182;-84
2022/05/13 11:36:03;;;;;;;7.33;3.87;;;;;;;;;;5020197;28;20213;-84
2022/05/13 11:39:28;;;;;;;7.70;4.30;;;;;;;;;;5008747;28;20182;-86
2022/05/13 11:42:32;;;;;;;6.40;4.40;;;;;;;;;;4998153;28;20621;-85
2022/05/13 11:45:52;;;;;;;9.17;3.80;;;;;;;;;;5009278;28;20708;-85
2022/05/13 11:49:20;;;;;;;7.73;4.10;;;;;;;;;;5021876;28;20524;-85
2022/05/13 11:52:34;;;;;;;10.40;3.70;;;;;;;;;;5020682;28;20187;-85
2022/05/13 11:55:39;;;;;;;8.00;4.07;;;;;;;;;;5009210;28;20212;-85
2022/05/13 11:58:49;;;;;;;9.70;4.10;;;;;;;;;;5009830;28;20177;-85
2022/05/13 12:01:58;;;;;;;9.63;3.30;;;;;;;;;;5008941;28;20184;-85
2022/05/13 12:05:10;;;;;;;8.13;3.97;;;;;;;;;;5020083;28;20211;-85
2022/05/13 12:08:37;;;;;;;9.07;3.47;;;;;;;;;;4998601;28;20182;-85
2022/05/13 12:11:48;;;;;;;8.68;3.42;;;;;;;;;;5037498;28;20528;-85
2022/05/13 12:15:18;;;;;;;6.57;4.00;;;;;;;;;;5019893;28;20176;-85
2022/05/13 12:18:38;;;;;;;11.25;4.10;;;;;;;;;;5019869;28;20174;-85
2022/05/13 12:22:04;;;;;;;7.75;3.55;;;;;;;;;;4998186;28;20183;-85
2022/05/13 12:25:31;;;;;;;11.48;3.72;;;;;;;;;;4997498;28;20205;-84
2022/05/13 12:28:40;;;;;;;8.30;3.70;;;;;;;;;;5009709;28;20191;-85
2022/05/13 12:31:48;;;;;;;8.98;3.78;;;;;;;;;;5020238;28;20180;-85
2022/05/13 12:38:21;;;;;;;7.65;3.95;;;;;;;;;;5031170;28;20186;-84
2022/05/13 12:41:39;;;;;;;6.68;3.40;;;;;;;;;;5031088;28;20677;-85
2022/05/13 12:44:59;;;;;;;6.85;3.45;;;;;;;;;;5019710;28;20212;-85
2022/05/13 12:48:09;;;;;;;9.13;3.65;;;;;;;;;;4997398;28;20178;-85
2022/05/13 12:51:19;;;;;;;6.78;3.40;;;;;;;;;;5019974;28;20185;-85
2022/05/13 12:54:27;;;;;;;6.22;3.45;;;;;;;;;;5019648;28;20179;-85
2022/05/13 12:57:37;;;;;;;6.75;3.45;;;;;;;;;;4998322;28;20174;-85
2022/05/13 13:00:45;;;;;;;6.55;3.30;;;;;;;;;;5019417;28;20178;-85
2022/05/13 13:03:50;;;;;;;10.68;3.72;;;;;;;;;;5007966;28;20178;-85
2022/05/13 13:07:06;;;;;;;6.55;3.22;;;;;;;;;;5017125;28;20230;-84
2022/05/13 13:10:16;;;;;;;10.15;3.72;;;;;;;;;;4996477;28;20181;-85
2022/05/13 13:13:30;;;;;;;8.88;3.60;;;;;;;;;;4996993;28;20194;-85
2022/05/13 13:16:59;;;;;;;7.85;3.80;;;;;;;;;;5019944;28;20214;-85
2022/05/13 13:20:06;;;;;;;5.38;3.40;;;;;;;;;;5018834;28;20185;-85
2022/05/13 13:23:11;;;;;;;6.60;3.40;;;;;;;;;;5007744;28;20196;-85
2022/05/13 13:26:17;;;;;;;7.83;3.50;;;;;;;;;;5007930;28;20215;-85
2022/05/13 13:29:26;;;;;;;6.82;2.95;;;;;;;;;;5018559;28;20181;-85
2022/05/13 13:32:30;;;;;;;6.28;3.47;;;;;;;;;;4997166;28;20631;-84
2022/05/13 13:35:45;;;;;;;6.15;3.25;;;;;;;;;;5018635;28;20217;-85
2022/05/13 13:38:55;;;;;;;10.40;3.38;;;;;;;;;;5029659;28;20185;-85
2022/05/13 13:42:07;;;;;;;8.80;3.63;;;;;;;;;;5006980;28;20565;-85
2022/05/13 13:45:18;;;;;;;7.70;3.40;;;;;;;;;;5030317;28;20211;-85
2022/05/13 13:48:35;;;;;;;8.88;3.58;;;;;;;;;;5006681;28;20186;-85
2022/05/13 13:51:48;;;;;;;8.38;3.00;;;;;;;;;;4996971;28;20183;-85
2022/05/13 13:54:57;;;;;;;9.00;3.72;;;;;;;;;;4995510;28;20190;-85
2022/05/13 13:58:20;;;;;;;8.18;3.10;;;;;;;;;;5030393;28;20269;-85
2022/05/13 14:01:27;;;;;;;4.40;3.22;;;;;;;;;;5006839;28;20183;-85
2022/05/13 14:04:31;;;;;;;6.60;3.53;;;;;;;;;;5018314;28;20210;-85
2022/05/13 14:07:39;;;;;;;7.10;3.07;;;;;;;;;;4996522;28;20202;-84
2022/05/13 14:10:54;;;;;;;6.37;3.50;;;;;;;;;;5007226;28;20651;-85
2022/05/13 14:14:02;;;;;;;6.53;3.20;;;;;;;;;;5007833;28;20192;-85
2022/05/13 14:17:08;;;;;;;10.63;3.90;;;;;;;;;;4995995;28;20217;-85
2022/05/13 14:20:20;;;;;;;6.83;3.43;;;;;;;;;;5007356;28;20182;-85
2022/05/13 14:23:31;;;;;;;6.83;3.63;;;;;;;;;;5018283;28;20188;-85
2022/05/13 14:26:54;;;;;;;7.87;3.50;;;;;;;;;;4996270;28;20213;-85
2022/05/13 14:30:04;;;;;;;8.23;3.53;;;;;;;;;;5019021;28;20183;-85
2022/05/13 14:33:09;;;;;;;6.85;3.45;;;;;;;;;;5018131;28;20185;-85
2022/05/13 14:36:13;;;;;;;6.90;3.53;;;;;;;;;;5007774;28;20217;-85
2022/05/13 14:42:56;;;;;;;7.63;3.33;;;;;;;;;;5030314;28;20187;-85
2022/05/13 14:46:08;;;;;;;9.90;3.97;;;;;;;;;;5008029;28;20231;-85
2022/05/13 14:49:49;;;;;;;11.30;3.77;;;;;;;;;;5019084;28;20636;-85
2022/05/13 14:52:54;;;;;;;5.83;3.30;;;;;;;;;;5018410;28;20175;-85
2022/05/13 14:56:02;;;;;;;5.17;3.30;;;;;;;;;;5020103;28;20207;-85
2022/05/13 14:59:09;;;;;;;8.43;3.20;;;;;;;;;;5007530;28;20186;-85
2022/05/13 15:02:26;;;;;;;5.87;2.70;;;;;;;;;;5031259;28;20178;-85
2022/05/13 15:05:44;;;;;;;9.77;3.07;;;;;;;;;;5018315;28;20231;-85
2022/05/13 15:09:08;;;;;;;11.57;3.07;;;;;;;;;;5029516;28;20192;-85
2022/05/13 15:12:13;;;;;;;5.90;2.87;;;;;;;;;;5019808;28;20189;-85
2022/05/13 15:15:17;;;;;;;4.67;2.70;;;;;;;;;;5018621;28;20174;-85
2022/05/13 15:18:24;;;;;;;6.73;3.07;;;;;;;;;;5007056;28;20186;-85
2022/05/13 15:21:29;;;;;;;4.80;2.63;;;;;;;;;;4995587;28;20178;-84
2022/05/13 15:24:38;;;;;;;9.47;3.40;;;;;;;;;;5006363;28;20181;-85
2022/05/13 15:27:43;;;;;;;8.07;3.33;;;;;;;;;;5017033;28;20185;-85
2022/05/13 15:30:50;;;;;;;6.90;2.53;;;;;;;;;;5005849;28;20180;-85
2022/05/13 15:33:54;;;;;;;8.13;3.37;;;;;;;;;;5006098;28;20554;-84
2022/05/13 15:36:58;;;;;;;4.77;3.20;;;;;;;;;;4994458;28;20564;-84
2022/05/13 15:40:05;;;;;;;7.57;3.13;;;;;;;;;;4994889;28;20195;-85
2022/05/13 15:43:09;;;;;;;5.40;3.20;;;;;;;;;;5005637;28;20567;-84
2022/05/13 15:46:19;;;;;;;5.53;3.40;;;;;;;;;;5017291;28;20238;-84
2022/05/13 15:52:47;;;;;;;8.53;2.97;;;;;;;;;;5017395;28;20526;-84
2022/05/13 15:55:54;;;;;;;8.30;2.83;;;;;;;;;;5027931;28;20561;-84
2022/05/13 15:58:58;;;;;;;6.57;3.23;;;;;;;;;;5019404;28;20186;-84
2022/05/13 16:02:02;;;;;;;8.73;3.07;;;;;;;;;;5017293;28;20182;-84
2022/05/13 16:05:07;;;;;;;9.43;2.73;;;;;;;;;;5029355;28;20217;-84
2022/05/13 16:08:11;;;;;;;7.17;2.83;;;;;;;;;;5022767;23;20229;-83
2022/05/13 16:11:21;;;;;;;7.83;2.97;;;;;;;;;;5037668;28;20177;-83
2022/05/13 16:14:25;;;;;;;4.20;2.73;;;;;;;;;;5013886;28;20196;-83
2022/05/13 16:17:29;;;;;;;6.47;2.83;;;;;;;;;;5024953;28;20560;-83
2022/05/13 16:20:34;;;;;;;4.70;2.50;;;;;;;;;;5036457;28;20513;-83
2022/05/13 16:23:40;;;;;;;7.50;2.50;;;;;;;;;;5013152;28;20177;-83
2022/05/13 16:26:45;;;;;;;8.57;3.13;;;;;;;;;;5013480;28;20228;-83
2022/05/13 16:29:49;;;;;;;5.80;2.80;;;;;;;;;;5024903;28;20177;-83
2022/05/13 16:32:53;;;;;;;6.20;2.33;;;;;;;;;;5024728;28;20185;-83
2022/05/13 16:35:57;;;;;;;7.00;2.90;;;;;;;;;;5036084;28;20173;-83
2022/05/13 16:39:01;;;;;;;5.77;2.57;;;;;;;;;;5036026;28;20177;-84
2022/05/13 16:42:06;;;;;;;15.20;2.57;;;;;;;;;;5023420;28;20184;-83
2022/05/13 16:45:11;;;;;;;5.67;2.30;;;;;;;;;;5013460;28;20548;-83
2022/05/13 16:48:16;;;;;;;3.20;2.30;;;;;;;;;;5012853;28;20687;-83
2022/05/13 16:51:20;;;;;;;8.17;2.60;;;;;;;;;;5035735;28;20189;-84
2022/05/13 16:54:24;;;;;;;6.37;2.23;;;;;;;;;;5012872;28;20201;-83
2022/05/13 16:57:28;;;;;;;6.97;2.87;;;;;;;;;;5012800;28;20243;-82
2022/05/13 17:00:32;;;;;;;4.97;2.43;;;;;;;;;;5012786;28;20180;-83
2022/05/13 17:03:37;;;;;;;4.47;2.13;;;;;;;;;;5024279;28;20185;-83
2022/05/13 17:06:41;;;;;;;3.47;2.33;;;;;;;;;;5023681;28;20568;-83
2022/05/13 17:16:36;;;;;;;4.37;2.30;;;;;;;;;;5036045;28;20181;-83
2022/05/13 17:19:44;;;;;;;5.03;2.53;;;;;;;;;;5012949;28;20664;-83
2022/05/13 17:22:48;;;;;;;4.67;2.20;;;;;;;;;;5012995;28;20185;-83
2022/05/13 17:25:54;;;;;;;6.03;2.37;;;;;;;;;;5013015;28;20204;-84
2022/05/13 17:28:57;;;;;;;6.47;2.47;;;;;;;;;;5023739;28;20628;-83
2022/05/13 17:32:02;;;;;;;5.30;2.10;;;;;;;;;;5023604;28;20185;-84
2022/05/13 17:35:06;;;;;;;5.70;2.30;;;;;;;;;;5035153;28;20180;-83
2022/05/13 17:38:15;;;;;;;6.50;2.20;;;;;;;;;;5012523;28;20212;-83
2022/05/13 17:41:19;;;;;;;4.40;2.40;;;;;;;;;;5012026;28;20537;-83
2022/05/13 17:44:24;;;;;;;4.67;2.30;;;;;;;;;;5012289;28;20196;-83
2022/05/13 17:47:28;;;;;;;4.80;2.20;;;;;;;;;;5011612;28;20232;-83
2022/05/13 17:50:34;;;;;;;4.93;2.50;;;;;;;;;;5011979;28;20185;-83
2022/05/13 17:53:38;;;;;;;5.50;2.47;;;;;;;;;;5011536;28;20185;-83
2022/05/13 17:56:42;;;;;;;4.93;2.30;;;;;;;;;;5011475;28;20216;-83
2022/05/13 17:59:47;;;;;;;7.37;2.27;;;;;;;;;;5012016;28;20180;-82
2022/05/13 18:02:51;;;;;;;7.03;2.60;;;;;;;;;;5012269;28;20512;-83
2022/05/13 18:05:56;;;;;;;7.27;2.27;;;;;;;;;;5034395;28;20212;-82
2022/05/13 18:08:59;;;;;;;6.07;2.27;;;;;;;;;;5034116;28;20180;-83
2022/05/13 18:12:04;;;;;;;4.27;2.13;;;;;;;;;;5011616;28;20184;-83
2022/05/13 18:15:09;;;;;;;7.20;2.20;;;;;;;;;;5034447;28;20177;-83
2022/05/13 18:18:32;;;;;;;4.37;2.33;;;;;;;;;;5022399;28;20212;-82
2022/05/13 18:21:37;;;;;;;4.63;2.00;;;;;;;;;;5011525;28;20251;-83
2022/05/13 18:24:41;;;;;;;4.43;2.20;;;;;;;;;;5022976;28;20184;-83
2022/05/13 18:27:45;;;;;;;3.23;2.00;;;;;;;;;;5033968;28;20233;-83
2022/05/13 18:30:51;;;;;;;4.73;2.00;;;;;;;;;;5022721;28;20177;-83
2022/05/13 18:33:56;;;;;;;5.60;2.23;;;;;;;;;;5011555;28;20204;-84
2022/05/13 18:37:00;;;;;;;8.63;2.57;;;;;;;;;;5033624;28;20216;-82
2022/05/13 18:46:50;;;;;;;5.00;2.00;;;;;;;;;;5033217;28;20228;-82
2022/05/13 18:49:55;;;;;;;6.97;2.50;;;;;;;;;;5033587;28;20659;-84
2022/05/13 18:53:00;;;;;;;8.93;2.33;;;;;;;;;;5021785;28;20201;-84
2022/05/13 18:56:05;;;;;;;5.20;2.40;;;;;;;;;;5011464;28;20529;-84
2022/05/13 18:59:11;;;;;;;6.03;2.63;;;;;;;;;;5011153;28;20177;-84
2022/05/13 19:02:15;;;;;;;9.70;2.50;;;;;;;;;;5033651;28;20176;-84
2022/05/13 19:05:19;;;;;;;5.07;2.40;;;;;;;;;;5011626;28;20556;-84
2022/05/13 19:08:24;;;;;;;5.87;2.50;;;;;;;;;;5026471;28;20220;-84
2022/05/13 19:11:28;;;;;;;7.77;2.70;;;;;;;;;;5014971;28;20199;-83
2022/05/13 19:14:32;;;;;;;6.60;2.50;;;;;;;;;;5026134;28;20185;-83
2022/05/13 19:17:37;;;;;;;4.90;2.83;;;;;;;;;;5037549;28;20216;-84
2022/05/13 19:20:41;;;;;;;7.13;2.60;;;;;;;;;;5037546;28;20181;-83
2022/05/13 19:23:45;;;;;;;5.40;2.60;;;;;;;;;;5014554;28;20177;-84
2022/05/13 19:26:49;;;;;;;5.33;2.87;;;;;;;;;;5037097;28;20228;-84